Main page
METAR-TAF:

METAR-TAF

Airports :

Shelby–Cleveland County Regional Airport

Shelby, North Carolina, United States

latitude: 35-15N, longitude: 081-36W, elevation: 846 ft

Current weather observation

The report was made 3 hours and 19 minutes ago, at 17:10 UTC
Wind 17 mph from the Southwest with gusts up to 24 mph
Temperature 66°F
Humidity 73%
Pressure 29.85 in. Hg
Visibility: 10 miles
Broken clouds at a height of 2500 ft
Broken clouds at a height of 3300 ft
Overcast at a height of 4100 ft

METAR: KEHO 281710Z AUTO 22015G21KT 10SM BKN025 BKN033 OVC041 19/14 A2985 RMK AO2 T01850143

Time: 15:29 (20:29 UTC)


TAF: missing

Weather observations and forecasts of more than 4000 airports (METAR and TAF reports).

The available stations are represented by yellow and red dots on the map.

Hover mouse over dot to see the name of the station.

Then click to see weather observations and forecasts.

To change the map : click on the green buttons with a black cross to zoom in, on the green button with a dash to zoom out, or on the green arrows for adjacent maps.


METAR-TAF: